Terminal Aerodrome Forecast
Issued by NWS

Home | Current Version | Previous Version | Text Only | Print | Product List | Glossary On
Versions: 1 2 3 4 5 6 7 8 9 10 11 12 13
000
FTPA31 PHFO 171120
TAFHOG
TAF
PHOG 171120Z 1712/1812 04013KT P6SM VCSH FEW023 BKN050
     FM171900 04016G23KT P6SM FEW025 SCT050
     FM172200 05025G32KT P6SM FEW025 SCT050
     FM180700 05018G25KT P6SM VCSH FEW025 BKN050
      AMD LTD TO VIS AND WIND TIL 171600=

USA.gov is the U.S. government's official web portal to all federal, state and local government web resources and services.